Time;durP1;ratioP1;P1;durP2;ratioP2;P2;SDS_P1;SDS_P2;PMS_P1;PMS_P2;Temp;Humidity;BMP_temperature;BMP_pressure;BME280_temperature;BME280_humidity;BME280_pressure;Samples;Min_cycle;Max_cycle;Signal;HPM_P1;HPM_P2
2023/11/12 00:02:05;;;;;;;10.02;8.85;;;;;;;;;;5072430;28;20200;-61
2023/11/12 00:04:34;;;;;;;14.40;8.70;;;;;;;;;;5072688;28;20224;-61
2023/11/12 00:07:02;;;;;;;12.75;9.20;;;;;;;;;;5073871;28;20568;-62
2023/11/12 00:09:32;;;;;;;11.90;8.80;;;;;;;;;;5073630;28;20200;-62
2023/11/12 00:12:00;;;;;;;14.38;8.15;;;;;;;;;;5072892;28;20289;-62
2023/11/12 00:14:28;;;;;;;11.55;8.85;;;;;;;;;;5073887;28;20556;-63
2023/11/12 00:16:57;;;;;;;15.40;9.65;;;;;;;;;;5055288;28;20216;-63
2023/11/12 00:19:25;;;;;;;12.93;10.40;;;;;;;;;;5073643;28;20208;-61
2023/11/12 00:21:53;;;;;;;13.07;9.43;;;;;;;;;;5055260;28;20212;-61
2023/11/12 00:24:22;;;;;;;14.77;9.25;;;;;;;;;;5073257;28;20230;-62
2023/11/12 00:26:52;;;;;;;13.80;9.88;;;;;;;;;;5072113;28;20245;-61
2023/11/12 00:29:20;;;;;;;11.52;8.68;;;;;;;;;;5073097;28;20210;-61
2023/11/12 00:31:49;;;;;;;11.68;9.32;;;;;;;;;;5072725;28;20551;-62
2023/11/12 00:34:17;;;;;;;10.20;8.55;;;;;;;;;;5072747;28;20188;-62
2023/11/12 00:36:46;;;;;;;9.35;8.45;;;;;;;;;;5072514;28;20670;-62
2023/11/12 00:39:15;;;;;;;11.65;8.85;;;;;;;;;;5073069;28;20219;-62
2023/11/12 00:41:43;;;;;;;13.07;9.82;;;;;;;;;;5072733;28;20208;-62
2023/11/12 00:44:12;;;;;;;11.75;9.20;;;;;;;;;;5072710;28;20588;-62
2023/11/12 00:46:42;;;;;;;14.48;9.38;;;;;;;;;;5072915;28;20583;-62
2023/11/12 00:49:10;;;;;;;11.38;9.32;;;;;;;;;;5072640;28;20237;-62
2023/11/12 00:51:39;;;;;;;11.80;10.05;;;;;;;;;;5072066;28;20201;-62
2023/11/12 00:54:07;;;;;;;13.80;11.13;;;;;;;;;;5072569;28;20206;-63
2023/11/12 00:56:35;;;;;;;15.43;10.90;;;;;;;;;;5072753;28;20214;-62
2023/11/12 00:59:04;;;;;;;12.73;10.65;;;;;;;;;;5072889;28;20218;-62
2023/11/12 01:01:34;;;;;;;16.35;11.68;;;;;;;;;;5054562;28;20380;-62
2023/11/12 01:04:03;;;;;;;14.75;11.93;;;;;;;;;;5053070;28;20276;-62
2023/11/12 01:06:31;;;;;;;16.25;11.85;;;;;;;;;;5072383;28;20203;-62
2023/11/12 01:08:59;;;;;;;18.55;13.55;;;;;;;;;;5061138;28;20196;-62
2023/11/12 01:11:28;;;;;;;14.77;11.50;;;;;;;;;;5072076;28;20238;-62
2023/11/12 01:13:56;;;;;;;14.88;12.77;;;;;;;;;;5072086;28;20206;-63
2023/11/12 01:16:25;;;;;;;16.10;12.35;;;;;;;;;;5071690;28;20199;-62
2023/11/12 01:18:58;;;;;;;17.48;12.98;;;;;;;;;;5072527;28;20216;-62
2023/11/12 01:21:27;;;;;;;17.20;13.05;;;;;;;;;;5072034;28;20200;-62
2023/11/12 01:23:55;;;;;;;17.95;13.95;;;;;;;;;;5072203;28;20207;-62
2023/11/12 01:26:24;;;;;;;14.75;11.85;;;;;;;;;;5071014;28;20207;-62
2023/11/12 01:28:53;;;;;;;16.40;11.90;;;;;;;;;;5072100;28;20670;-62
2023/11/12 01:31:23;;;;;;;20.58;13.43;;;;;;;;;;5071534;28;20208;-62
2023/11/12 01:33:52;;;;;;;18.13;13.35;;;;;;;;;;5072315;28;20196;-62
2023/11/12 01:36:23;;;;;;;21.20;14.32;;;;;;;;;;5054128;28;20210;-62
2023/11/12 01:38:52;;;;;;;20.50;14.60;;;;;;;;;;5072101;28;20535;-62
2023/11/12 01:41:20;;;;;;;18.35;12.80;;;;;;;;;;5054050;28;20200;-62
2023/11/12 01:43:49;;;;;;;17.42;12.93;;;;;;;;;;5066630;28;20559;-62
2023/11/12 01:46:18;;;;;;;20.98;12.95;;;;;;;;;;5051290;28;20208;-62
2023/11/12 01:48:47;;;;;;;19.15;13.82;;;;;;;;;;5034023;28;20210;-62
2023/11/12 01:51:15;;;;;;;15.57;13.60;;;;;;;;;;5051719;28;20540;-62
2023/11/12 01:53:45;;;;;;;19.02;13.02;;;;;;;;;;5050116;28;20204;-62
2023/11/12 01:56:13;;;;;;;15.40;12.90;;;;;;;;;;5071706;28;20297;-62
2023/11/12 01:58:43;;;;;;;16.25;12.68;;;;;;;;;;5053184;28;20234;-62
2023/11/12 02:01:12;;;;;;;18.30;12.77;;;;;;;;;;5053364;28;20663;-61
2023/11/12 02:03:42;;;;;;;20.42;13.20;;;;;;;;;;5070408;28;20256;-62
2023/11/12 02:06:12;;;;;;;19.05;12.80;;;;;;;;;;5071766;28;20203;-61
2023/11/12 02:08:41;;;;;;;19.55;13.40;;;;;;;;;;5070343;28;20608;-62
2023/11/12 02:11:12;;;;;;;15.65;12.57;;;;;;;;;;5071462;28;20596;-62
2023/11/12 02:13:42;;;;;;;13.48;11.30;;;;;;;;;;5071511;28;20635;-62
2023/11/12 02:16:11;;;;;;;15.85;11.50;;;;;;;;;;5053719;28;20200;-62
2023/11/12 02:18:39;;;;;;;16.70;12.20;;;;;;;;;;5071674;28;20677;-62
2023/11/12 02:21:08;;;;;;;12.65;11.35;;;;;;;;;;5053591;28;20207;-62
2023/11/12 02:23:39;;;;;;;14.60;11.38;;;;;;;;;;5053306;28;20204;-63
2023/11/12 02:26:08;;;;;;;15.98;12.38;;;;;;;;;;5053540;28;20196;-62
2023/11/12 02:28:38;;;;;;;16.75;13.43;;;;;;;;;;5070871;28;20666;-63
2023/11/12 02:31:07;;;;;;;19.40;14.60;;;;;;;;;;5071320;28;20576;-63
2023/11/12 02:33:37;;;;;;;16.30;13.43;;;;;;;;;;5070613;28;20208;-62
2023/11/12 02:36:07;;;;;;;15.93;12.02;;;;;;;;;;5071690;28;20207;-61
2023/11/12 02:38:35;;;;;;;23.10;14.30;;;;;;;;;;5053415;28;20242;-62
2023/11/12 02:41:09;;;;;;;21.80;12.55;;;;;;;;;;5071832;28;20208;-61
2023/11/12 02:43:38;;;;;;;19.85;11.93;;;;;;;;;;5070093;28;20227;-62
2023/11/12 02:46:07;;;;;;;17.02;11.45;;;;;;;;;;5071381;28;20216;-63
2023/11/12 02:48:42;;;;;;;13.90;12.40;;;;;;;;;;5071638;28;20214;-63
2023/11/12 02:51:11;;;;;;;15.98;11.82;;;;;;;;;;5075197;28;20188;-62
2023/11/12 02:53:39;;;;;;;17.63;11.75;;;;;;;;;;5075079;28;20210;-63
2023/11/12 02:56:09;;;;;;;14.88;11.90;;;;;;;;;;5073054;28;20206;-62
2023/11/12 02:58:37;;;;;;;14.05;12.40;;;;;;;;;;5066750;28;20959;-63
2023/11/12 03:01:05;;;;;;;16.33;12.38;;;;;;;;;;5075118;28;20361;-62
2023/11/12 03:03:34;;;;;;;16.15;11.32;;;;;;;;;;5073862;28;20204;-63
2023/11/12 03:06:02;;;;;;;16.45;12.68;;;;;;;;;;5075037;28;20273;-63
2023/11/12 03:08:30;;;;;;;18.92;12.77;;;;;;;;;;5074646;28;20207;-63
2023/11/12 03:11:01;;;;;;;14.63;11.30;;;;;;;;;;5057069;28;20234;-63
2023/11/12 03:13:31;;;;;;;16.35;11.95;;;;;;;;;;5074287;28;20192;-62
2023/11/12 03:15:59;;;;;;;15.73;11.38;;;;;;;;;;5074802;28;20200;-63
2023/11/12 03:18:28;;;;;;;14.93;10.82;;;;;;;;;;5056315;28;20241;-63
2023/11/12 03:20:56;;;;;;;15.02;11.63;;;;;;;;;;5074906;28;20211;-63
2023/11/12 03:23:24;;;;;;;14.45;11.82;;;;;;;;;;5068182;28;20569;-63
2023/11/12 03:25:53;;;;;;;13.82;11.07;;;;;;;;;;5073840;28;20238;-62
2023/11/12 03:28:21;;;;;;;14.00;11.93;;;;;;;;;;5059362;28;20208;-62
2023/11/12 03:30:51;;;;;;;13.25;10.90;;;;;;;;;;5048842;28;20608;-62
2023/11/12 03:33:19;;;;;;;17.40;11.48;;;;;;;;;;5073164;28;20195;-62
2023/11/12 03:35:50;;;;;;;14.77;13.35;;;;;;;;;;5074783;28;20222;-62
2023/11/12 03:38:19;;;;;;;15.55;12.10;;;;;;;;;;5074170;28;20180;-62
2023/11/12 03:40:48;;;;;;;15.70;12.35;;;;;;;;;;5074379;28;20218;-62
2023/11/12 03:43:16;;;;;;;17.10;12.00;;;;;;;;;;5053481;28;20227;-63
2023/11/12 03:45:44;;;;;;;13.63;12.10;;;;;;;;;;5046568;28;20247;-62
2023/11/12 03:48:14;;;;;;;15.18;12.18;;;;;;;;;;5069216;28;20203;-63
2023/11/12 03:50:42;;;;;;;17.50;13.13;;;;;;;;;;5074468;28;20542;-62
2023/11/12 03:53:11;;;;;;;16.63;12.30;;;;;;;;;;5073900;28;20204;-63
2023/11/12 03:55:39;;;;;;;19.10;13.00;;;;;;;;;;5073488;28;20202;-62
2023/11/12 03:58:07;;;;;;;15.50;13.15;;;;;;;;;;5056067;28;20204;-63
2023/11/12 04:00:37;;;;;;;16.10;13.05;;;;;;;;;;5055933;28;20215;-63
2023/11/12 04:03:06;;;;;;;18.67;12.38;;;;;;;;;;5072426;28;20210;-62
2023/11/12 04:05:35;;;;;;;16.08;12.27;;;;;;;;;;5073225;28;20280;-62
2023/11/12 04:08:04;;;;;;;15.40;12.55;;;;;;;;;;5073973;28;20208;-63
2023/11/12 04:10:33;;;;;;;15.55;11.85;;;;;;;;;;5073548;28;20592;-63
2023/11/12 04:13:02;;;;;;;16.00;12.32;;;;;;;;;;5074435;28;20190;-63
2023/11/12 04:15:30;;;;;;;16.13;12.32;;;;;;;;;;5072717;28;20200;-63
2023/11/12 04:17:58;;;;;;;14.77;11.88;;;;;;;;;;5073701;28;20204;-64
2023/11/12 04:20:29;;;;;;;16.60;12.13;;;;;;;;;;5055270;28;20218;-63
2023/11/12 04:22:58;;;;;;;15.70;11.73;;;;;;;;;;5055349;28;20196;-64
2023/11/12 04:25:27;;;;;;;15.48;12.52;;;;;;;;;;5055465;28;20234;-63
2023/11/12 04:27:55;;;;;;;17.08;12.77;;;;;;;;;;5070503;28;20208;-63
2023/11/12 04:30:23;;;;;;;15.38;11.65;;;;;;;;;;5054747;28;20208;-63
2023/11/12 04:32:51;;;;;;;17.13;12.05;;;;;;;;;;5053197;28;20675;-64
2023/11/12 04:35:20;;;;;;;16.55;11.90;;;;;;;;;;5054620;28;20200;-63
2023/11/12 04:37:48;;;;;;;13.45;11.02;;;;;;;;;;5073268;28;20206;-63
2023/11/12 04:40:18;;;;;;;13.30;10.65;;;;;;;;;;5073037;28;20196;-64
2023/11/12 04:42:48;;;;;;;16.70;10.75;;;;;;;;;;5073189;28;20207;-64
2023/11/12 04:45:17;;;;;;;16.38;11.75;;;;;;;;;;5064233;28;20232;-64
2023/11/12 04:47:45;;;;;;;14.05;11.85;;;;;;;;;;5053016;28;20210;-63
2023/11/12 04:50:14;;;;;;;18.83;13.07;;;;;;;;;;5052967;28;20202;-64
2023/11/12 04:52:42;;;;;;;16.30;11.60;;;;;;;;;;5056311;28;20204;-64
2023/11/12 04:55:11;;;;;;;16.48;12.35;;;;;;;;;;5072655;28;20562;-64
2023/11/12 04:57:40;;;;;;;19.40;12.55;;;;;;;;;;5072827;28;20207;-64
2023/11/12 05:00:09;;;;;;;16.20;10.70;;;;;;;;;;5072574;28;20210;-63
2023/11/12 05:02:37;;;;;;;17.92;11.57;;;;;;;;;;5053859;28;20208;-64
2023/11/12 05:05:06;;;;;;;18.38;11.23;;;;;;;;;;5072456;28;20215;-63
2023/11/12 05:07:35;;;;;;;19.15;11.75;;;;;;;;;;5055390;28;20210;-63
2023/11/12 05:10:05;;;;;;;19.83;13.85;;;;;;;;;;5072483;28;20626;-63
2023/11/12 05:12:34;;;;;;;15.52;12.73;;;;;;;;;;5071821;28;20227;-63
2023/11/12 05:15:03;;;;;;;16.25;11.90;;;;;;;;;;5072810;28;20200;-64
2023/11/12 05:17:32;;;;;;;22.38;13.75;;;;;;;;;;5072545;28;20203;-64
2023/11/12 05:20:00;;;;;;;27.40;13.75;;;;;;;;;;5072709;28;20204;-63
2023/11/12 05:22:28;;;;;;;22.75;13.65;;;;;;;;;;5071576;28;20832;-64
2023/11/12 05:24:57;;;;;;;31.48;14.50;;;;;;;;;;5054371;28;20207;-64
2023/11/12 05:27:25;;;;;;;21.85;14.07;;;;;;;;;;5072648;28;20686;-64
2023/11/12 05:29:53;;;;;;;21.55;13.30;;;;;;;;;;5073044;28;20204;-64
2023/11/12 05:32:23;;;;;;;22.00;13.25;;;;;;;;;;5072939;28;20211;-64
2023/11/12 05:34:51;;;;;;;20.45;13.90;;;;;;;;;;5073182;28;20533;-64
2023/11/12 05:37:19;;;;;;;60.72;16.90;;;;;;;;;;5072553;28;20210;-64
2023/11/12 05:39:47;;;;;;;101.38;18.90;;;;;;;;;;5073002;28;20192;-64
2023/11/12 05:42:16;;;;;;;42.60;16.80;;;;;;;;;;5072837;28;20207;-63
2023/11/12 05:44:44;;;;;;;54.95;15.35;;;;;;;;;;5072589;28;20230;-63
2023/11/12 05:47:12;;;;;;;83.15;16.10;;;;;;;;;;5070990;28;20219;-64
2023/11/12 05:49:42;;;;;;;76.47;15.00;;;;;;;;;;5065278;28;20208;-64
2023/11/12 05:52:11;;;;;;;59.45;14.45;;;;;;;;;;5073009;28;20206;-64
2023/11/12 05:54:39;;;;;;;82.45;17.15;;;;;;;;;;5073120;28;20203;-64
2023/11/12 05:57:07;;;;;;;51.45;14.57;;;;;;;;;;5072831;28;20196;-64
2023/11/12 05:59:36;;;;;;;56.72;14.32;;;;;;;;;;5073226;28;20203;-64
2023/11/12 06:02:04;;;;;;;47.47;13.32;;;;;;;;;;5054208;28;20204;-64
2023/11/12 06:04:32;;;;;;;68.90;13.65;;;;;;;;;;5053433;28;20214;-64
2023/11/12 06:07:02;;;;;;;49.78;15.00;;;;;;;;;;5072485;28;20268;-64
2023/11/12 06:09:30;;;;;;;20.25;12.70;;;;;;;;;;5072589;28;20203;-64
2023/11/12 06:12:00;;;;;;;20.42;14.25;;;;;;;;;;5071857;28;20228;-64
2023/11/12 06:14:28;;;;;;;21.02;14.73;;;;;;;;;;5072551;28;20200;-64
2023/11/12 06:16:56;;;;;;;22.88;14.07;;;;;;;;;;5072750;28;20584;-64
2023/11/12 06:19:24;;;;;;;70.22;16.35;;;;;;;;;;5072574;28;20203;-64
2023/11/12 06:21:53;;;;;;;23.70;13.85;;;;;;;;;;5072843;28;20204;-64
2023/11/12 06:24:22;;;;;;;70.90;16.98;;;;;;;;;;5074549;28;20623;-64
2023/11/12 06:26:51;;;;;;;61.33;16.90;;;;;;;;;;5076870;28;20590;-64
2023/11/12 06:29:19;;;;;;;36.85;13.40;;;;;;;;;;5075767;28;20200;-64
2023/11/12 06:31:47;;;;;;;71.68;16.88;;;;;;;;;;5076558;28;20243;-64
2023/11/12 06:34:15;;;;;;;98.70;18.23;;;;;;;;;;5058233;28;20723;-64
2023/11/12 06:36:44;;;;;;;79.43;15.38;;;;;;;;;;5076211;28;20666;-64
2023/11/12 06:39:13;;;;;;;127.15;17.55;;;;;;;;;;5076349;28;20215;-64
2023/11/12 06:41:43;;;;;;;89.47;15.73;;;;;;;;;;5076763;28;20204;-64
2023/11/12 06:44:11;;;;;;;54.83;15.30;;;;;;;;;;5075510;28;20218;-64
2023/11/12 06:46:44;;;;;;;49.15;14.40;;;;;;;;;;5075942;28;20222;-64
2023/11/12 06:49:12;;;;;;;58.50;14.82;;;;;;;;;;5076341;28;20257;-64
2023/11/12 06:51:40;;;;;;;24.38;13.57;;;;;;;;;;5076519;28;20199;-64
2023/11/12 06:54:09;;;;;;;21.27;13.25;;;;;;;;;;5078868;28;20200;-64
2023/11/12 06:56:38;;;;;;;30.25;14.73;;;;;;;;;;5075846;28;20200;-64
2023/11/12 06:59:07;;;;;;;17.60;13.02;;;;;;;;;;5075616;28;20196;-64
2023/11/12 07:01:37;;;;;;;28.38;18.80;;;;;;;;;;5075603;28;20204;-64
2023/11/12 07:04:06;;;;;;;31.83;23.67;;;;;;;;;;5073387;28;20196;-64
2023/11/12 07:06:34;;;;;;;23.27;16.92;;;;;;;;;;5074075;28;20614;-64
2023/11/12 07:09:03;;;;;;;29.20;21.70;;;;;;;;;;5075245;28;20249;-64
2023/11/12 07:11:32;;;;;;;14.00;11.60;;;;;;;;;;5073163;28;20758;-64
2023/11/12 07:14:00;;;;;;;16.92;11.50;;;;;;;;;;5070073;28;20196;-64
2023/11/12 07:16:30;;;;;;;22.50;13.35;;;;;;;;;;5071682;28;20662;-64
2023/11/12 07:18:58;;;;;;;14.52;10.85;;;;;;;;;;5071637;28;20211;-63
2023/11/12 07:21:27;;;;;;;16.83;12.60;;;;;;;;;;5067034;28;20204;-64
2023/11/12 07:23:56;;;;;;;13.77;11.20;;;;;;;;;;5074431;28;20204;-63
2023/11/12 07:26:24;;;;;;;16.13;13.10;;;;;;;;;;5075761;28;20289;-63
2023/11/12 07:28:53;;;;;;;15.05;11.68;;;;;;;;;;5074993;28;20558;-64
2023/11/12 07:31:23;;;;;;;14.27;12.18;;;;;;;;;;5075948;28;20206;-64
2023/11/12 07:33:52;;;;;;;19.35;12.40;;;;;;;;;;5037107;28;20204;-64
2023/11/12 07:36:21;;;;;;;17.00;13.13;;;;;;;;;;5052390;28;20200;-64
2023/11/12 07:38:50;;;;;;;17.23;13.68;;;;;;;;;;5074966;28;20207;-64
2023/11/12 07:41:19;;;;;;;14.02;12.27;;;;;;;;;;5075478;28;20204;-64
2023/11/12 07:43:47;;;;;;;15.73;13.57;;;;;;;;;;5055450;28;20223;-64
2023/11/12 07:46:16;;;;;;;21.05;14.60;;;;;;;;;;5072640;28;20253;-64
2023/11/12 07:48:44;;;;;;;22.15;14.30;;;;;;;;;;5074284;28;20208;-64
2023/11/12 07:51:14;;;;;;;24.80;16.00;;;;;;;;;;5075387;28;20212;-64
2023/11/12 07:53:42;;;;;;;34.13;24.40;;;;;;;;;;5074809;28;20247;-64
2023/11/12 07:56:10;;;;;;;30.30;21.15;;;;;;;;;;5075205;28;20200;-64
2023/11/12 07:58:39;;;;;;;18.17;14.88;;;;;;;;;;5073735;28;20196;-64
2023/11/12 08:01:07;;;;;;;18.67;13.30;;;;;;;;;;5071330;28;20206;-62
2023/11/12 08:03:35;;;;;;;15.48;12.73;;;;;;;;;;5078644;28;20282;-62
2023/11/12 08:06:04;;;;;;;13.25;11.82;;;;;;;;;;5079557;28;20274;-62
2023/11/12 08:08:33;;;;;;;13.57;11.90;;;;;;;;;;5079231;28;20226;-61
2023/11/12 08:11:02;;;;;;;12.73;11.20;;;;;;;;;;5057995;28;20280;-62
2023/11/12 08:13:30;;;;;;;14.45;12.38;;;;;;;;;;5069481;28;20337;-62
2023/11/12 08:15:59;;;;;;;14.13;12.50;;;;;;;;;;5078759;28;20283;-62
2023/11/12 08:18:27;;;;;;;17.50;12.82;;;;;;;;;;5079260;28;20251;-63
2023/11/12 08:20:56;;;;;;;27.15;18.85;;;;;;;;;;5079583;28;20626;-63
2023/11/12 08:23:25;;;;;;;33.78;20.00;;;;;;;;;;5077563;28;20286;-61
2023/11/12 08:25:54;;;;;;;18.20;14.88;;;;;;;;;;5071081;28;20707;-62
2023/11/12 08:28:24;;;;;;;22.88;17.58;;;;;;;;;;5065945;28;20265;-62
2023/11/12 08:30:52;;;;;;;25.95;19.40;;;;;;;;;;5079046;28;20285;-62
2023/11/12 08:33:20;;;;;;;26.33;20.30;;;;;;;;;;5079456;28;20283;-62
2023/11/12 08:35:49;;;;;;;28.20;17.23;;;;;;;;;;5061282;28;20640;-61
2023/11/12 08:38:17;;;;;;;20.52;15.98;;;;;;;;;;5079747;28;20283;-62
2023/11/12 08:40:45;;;;;;;16.15;12.75;;;;;;;;;;5079195;28;20279;-61
2023/11/12 08:43:15;;;;;;;15.00;11.82;;;;;;;;;;5078437;28;20306;-62
2023/11/12 08:45:43;;;;;;;15.20;13.65;;;;;;;;;;5077570;28;20275;-62
2023/11/12 08:48:12;;;;;;;17.08;13.93;;;;;;;;;;5077964;28;20645;-62
2023/11/12 08:50:40;;;;;;;15.32;13.80;;;;;;;;;;5077972;28;20283;-61
2023/11/12 08:53:08;;;;;;;15.00;13.45;;;;;;;;;;5073791;28;20204;-63
2023/11/12 08:55:37;;;;;;;14.35;12.85;;;;;;;;;;5073975;28;20221;-61
2023/11/12 08:58:05;;;;;;;15.65;13.32;;;;;;;;;;5072765;28;20200;-62
2023/11/12 09:00:35;;;;;;;16.55;12.50;;;;;;;;;;5077176;28;20664;-62
2023/11/12 09:03:04;;;;;;;15.18;12.35;;;;;;;;;;5057846;28;20188;-62
2023/11/12 09:05:34;;;;;;;15.20;12.70;;;;;;;;;;5075360;28;20240;-62
2023/11/12 09:08:02;;;;;;;13.80;11.38;;;;;;;;;;5077648;28;20215;-61
2023/11/12 09:10:31;;;;;;;17.20;14.70;;;;;;;;;;5060198;28;20259;-61
2023/11/12 09:12:59;;;;;;;14.60;13.02;;;;;;;;;;5060433;28;20263;-61
2023/11/12 09:15:28;;;;;;;15.48;11.30;;;;;;;;;;5060248;28;20212;-61
2023/11/12 09:17:57;;;;;;;11.50;10.18;;;;;;;;;;5078357;28;20352;-63
2023/11/12 09:20:25;;;;;;;13.95;11.57;;;;;;;;;;5060664;28;20247;-61
2023/11/12 09:22:54;;;;;;;13.10;11.15;;;;;;;;;;5081311;28;20260;-62
2023/11/12 09:25:22;;;;;;;12.30;10.02;;;;;;;;;;5083548;28;20263;-62
2023/11/12 09:27:51;;;;;;;13.07;11.35;;;;;;;;;;5079867;28;20224;-62
2023/11/12 09:30:19;;;;;;;12.10;9.70;;;;;;;;;;5083673;28;20287;-61
2023/11/12 09:32:47;;;;;;;11.45;10.25;;;;;;;;;;5075703;28;20208;-61
2023/11/12 09:35:17;;;;;;;9.80;8.80;;;;;;;;;;5077204;28;20651;-62
2023/11/12 09:37:45;;;;;;;10.73;9.63;;;;;;;;;;5077224;28;20319;-61
2023/11/12 09:40:13;;;;;;;13.75;9.02;;;;;;;;;;5076247;28;20271;-61
2023/11/12 09:42:43;;;;;;;12.10;10.55;;;;;;;;;;5075285;28;20333;-61
2023/11/12 09:45:14;;;;;;;11.75;10.50;;;;;;;;;;5073987;28;20291;-61
2023/11/12 09:47:44;;;;;;;14.93;12.73;;;;;;;;;;5074468;28;20302;-61
2023/11/12 09:50:13;;;;;;;16.88;13.95;;;;;;;;;;5089202;28;21620;-62
2023/11/12 09:52:43;;;;;;;16.27;13.45;;;;;;;;;;5077083;28;20772;-61
2023/11/12 09:55:11;;;;;;;18.23;12.82;;;;;;;;;;5077566;28;20290;-61
2023/11/12 09:57:40;;;;;;;15.45;12.60;;;;;;;;;;5067715;28;20684;-61
2023/11/12 10:00:12;;;;;;;19.23;13.38;;;;;;;;;;5067051;28;20278;-62
2023/11/12 10:02:41;;;;;;;15.00;12.02;;;;;;;;;;5074109;28;20248;-62
2023/11/12 10:05:11;;;;;;;19.88;15.70;;;;;;;;;;5077075;28;20291;-60
2023/11/12 10:07:39;;;;;;;16.27;14.10;;;;;;;;;;5077982;28;20636;-61
2023/11/12 10:10:25;;;;;;;19.13;14.18;;;;;;;;;;5076328;28;20279;-62
2023/11/12 10:12:54;;;;;;;19.27;12.63;;;;;;;;;;5073259;28;20397;-61
2023/11/12 10:15:26;;;;;;;26.13;22.20;;;;;;;;;;5077758;28;20279;-61
2023/11/12 10:17:54;;;;;;;25.17;20.95;;;;;;;;;;5078378;28;20278;-61
2023/11/12 10:20:23;;;;;;;16.30;13.45;;;;;;;;;;5078247;28;20282;-61
2023/11/12 10:22:51;;;;;;;18.27;13.77;;;;;;;;;;5078119;28;20295;-61
2023/11/12 10:25:35;;;;;;;16.75;13.93;;;;;;;;;;5061264;28;20278;-60
2023/11/12 10:28:06;;;;;;;16.88;12.25;;;;;;;;;;5078134;28;20291;-61
2023/11/12 10:30:35;;;;;;;16.08;12.20;;;;;;;;;;5077913;28;20247;-61
2023/11/12 10:33:17;;;;;;;17.40;15.50;;;;;;;;;;5077358;28;20279;-61
2023/11/12 10:35:46;;;;;;;14.55;12.45;;;;;;;;;;5077412;28;20239;-62
2023/11/12 10:38:17;;;;;;;11.45;9.88;;;;;;;;;;5077690;28;20311;-61
2023/11/12 10:41:01;;;;;;;12.13;9.23;;;;;;;;;;5077356;28;20251;-63
2023/11/12 10:43:31;;;;;;;12.25;9.82;;;;;;;;;;5073132;28;20309;-62
2023/11/12 10:46:00;;;;;;;9.68;8.68;;;;;;;;;;5072223;28;20263;-61
2023/11/12 10:48:31;;;;;;;11.13;9.43;;;;;;;;;;5077043;28;20306;-62
2023/11/12 10:51:01;;;;;;;10.20;8.57;;;;;;;;;;5060237;28;20679;-62
2023/11/12 10:53:30;;;;;;;11.73;9.52;;;;;;;;;;5077403;28;20627;-61
2023/11/12 10:56:00;;;;;;;9.10;8.15;;;;;;;;;;5056736;28;20671;-61
2023/11/12 10:58:29;;;;;;;8.80;7.90;;;;;;;;;;5071086;28;20341;-62
2023/11/12 11:01:01;;;;;;;16.60;9.00;;;;;;;;;;5077187;28;20215;-62
2023/11/12 11:03:30;;;;;;;12.68;9.27;;;;;;;;;;5076421;28;20280;-63
2023/11/12 11:06:01;;;;;;;9.65;8.65;;;;;;;;;;5077582;28;20291;-61
2023/11/12 11:08:31;;;;;;;8.80;8.00;;;;;;;;;;5058685;28;20238;-62
2023/11/12 11:11:00;;;;;;;7.75;7.05;;;;;;;;;;5079214;28;20223;-62
2023/11/12 11:13:28;;;;;;;11.90;8.50;;;;;;;;;;5077326;28;20663;-62
2023/11/12 11:15:58;;;;;;;10.90;8.68;;;;;;;;;;5043295;28;20208;-62
2023/11/12 11:18:45;;;;;;;13.38;9.15;;;;;;;;;;5060890;28;20215;-62
2023/11/12 11:21:15;;;;;;;11.68;9.63;;;;;;;;;;5061254;28;20267;-62
2023/11/12 11:23:44;;;;;;;13.10;8.43;;;;;;;;;;5061141;28;20289;-62
2023/11/12 11:26:27;;;;;;;11.98;8.85;;;;;;;;;;5074093;28;20196;-62
2023/11/12 11:29:13;;;;;;;13.32;8.70;;;;;;;;;;5078652;28;20303;-62
2023/11/12 11:31:42;;;;;;;11.75;7.93;;;;;;;;;;5081661;28;20309;-63
2023/11/12 11:34:12;;;;;;;10.50;7.70;;;;;;;;;;5062518;28;20196;-63
2023/11/12 11:36:55;;;;;;;9.02;7.65;;;;;;;;;;5081548;28;20282;-61
2023/11/12 11:39:28;;;;;;;11.15;9.05;;;;;;;;;;5062184;28;20243;-61
2023/11/12 11:42:15;;;;;;;9.02;7.70;;;;;;;;;;5081213;28;20327;-63
2023/11/12 11:44:44;;;;;;;10.35;7.43;;;;;;;;;;5080261;28;20279;-63
2023/11/12 11:47:14;;;;;;;7.70;6.80;;;;;;;;;;5081359;28;20211;-63
2023/11/12 11:49:43;;;;;;;8.90;7.95;;;;;;;;;;5080348;28;20302;-62
2023/11/12 11:52:14;;;;;;;8.73;7.85;;;;;;;;;;5081255;28;20768;-63
2023/11/12 11:54:42;;;;;;;7.90;7.05;;;;;;;;;;5062745;28;20187;-62
2023/11/12 11:57:11;;;;;;;13.60;10.65;;;;;;;;;;5062802;28;20252;-63
2023/11/12 11:59:39;;;;;;;10.48;9.38;;;;;;;;;;5080517;28;20255;-62
2023/11/12 12:02:15;;;;;;;13.88;9.80;;;;;;;;;;5060798;28;20201;-63
2023/11/12 12:04:47;;;;;;;9.70;6.85;;;;;;;;;;5067609;28;20366;-63
2023/11/12 12:07:24;;;;;;;9.27;6.82;;;;;;;;;;5060861;28;20193;-62
2023/11/12 12:09:53;;;;;;;13.80;6.28;;;;;;;;;;5060419;28;20284;-62
2023/11/12 12:12:22;;;;;;;6.10;5.60;;;;;;;;;;5066494;28;20296;-62
2023/11/12 12:14:51;;;;;;;6.47;5.80;;;;;;;;;;5079922;28;20231;-62
2023/11/12 12:17:19;;;;;;;6.25;5.63;;;;;;;;;;5075422;28;20279;-63
2023/11/12 12:19:52;;;;;;;5.55;5.05;;;;;;;;;;5059878;28;20291;-62
2023/11/12 12:22:22;;;;;;;6.88;5.20;;;;;;;;;;5059948;28;20272;-62
2023/11/12 12:24:55;;;;;;;5.35;4.85;;;;;;;;;;5062780;28;20275;-62
2023/11/12 12:27:23;;;;;;;5.45;4.80;;;;;;;;;;5079313;28;20618;-62
2023/11/12 12:29:53;;;;;;;6.75;4.95;;;;;;;;;;5061441;28;20271;-63
2023/11/12 12:32:21;;;;;;;6.65;4.82;;;;;;;;;;5061613;28;20301;-62
2023/11/12 12:34:56;;;;;;;4.15;3.65;;;;;;;;;;5079622;28;20310;-62
2023/11/12 12:37:25;;;;;;;6.45;3.85;;;;;;;;;;5079925;28;20273;-61
2023/11/12 12:40:00;;;;;;;5.18;4.70;;;;;;;;;;5080136;28;20630;-61
2023/11/12 12:42:29;;;;;;;4.82;4.43;;;;;;;;;;5079749;28;20267;-62
2023/11/12 12:44:58;;;;;;;6.63;4.63;;;;;;;;;;5064619;28;20307;-61
2023/11/12 12:47:34;;;;;;;4.60;4.13;;;;;;;;;;5058933;28;20283;-61
2023/11/12 12:50:25;;;;;;;4.60;4.20;;;;;;;;;;5058992;28;20264;-62
2023/11/12 12:52:53;;;;;;;6.20;4.40;;;;;;;;;;5066230;28;20283;-62
2023/11/12 12:55:24;;;;;;;4.90;4.22;;;;;;;;;;5079360;28;20286;-61
2023/11/12 12:57:52;;;;;;;4.10;3.80;;;;;;;;;;5079283;28;20263;-62
2023/11/12 13:00:23;;;;;;;10.38;4.30;;;;;;;;;;5079272;28;20275;-62
2023/11/12 13:02:52;;;;;;;6.25;5.65;;;;;;;;;;5077425;28;20615;-62
2023/11/12 13:05:21;;;;;;;6.68;5.82;;;;;;;;;;5077800;28;20287;-62
2023/11/12 13:07:50;;;;;;;6.45;5.40;;;;;;;;;;5077660;28;20263;-61
2023/11/12 13:10:20;;;;;;;11.43;3.90;;;;;;;;;;5078320;28;20226;-62
2023/11/12 13:12:51;;;;;;;5.25;3.60;;;;;;;;;;5078508;28;20612;-62
2023/11/12 13:15:20;;;;;;;5.57;4.30;;;;;;;;;;5079545;28;20657;-64
2023/11/12 13:17:49;;;;;;;5.25;4.75;;;;;;;;;;5078701;28;20267;-61
2023/11/12 13:20:25;;;;;;;6.20;4.20;;;;;;;;;;5060205;28;20223;-62
2023/11/12 13:22:53;;;;;;;9.18;5.80;;;;;;;;;;5077384;28;20270;-62
2023/11/12 13:25:21;;;;;;;12.02;6.55;;;;;;;;;;5077575;28;20259;-62
2023/11/12 13:27:53;;;;;;;6.45;5.07;;;;;;;;;;5077838;28;20275;-62
2023/11/12 13:30:21;;;;;;;7.63;5.00;;;;;;;;;;5060555;28;20287;-62
2023/11/12 13:32:49;;;;;;;7.40;5.70;;;;;;;;;;5077201;28;20278;-62
2023/11/12 13:35:18;;;;;;;4.60;4.20;;;;;;;;;;5077772;28;20287;-63
2023/11/12 13:37:46;;;;;;;10.88;6.90;;;;;;;;;;5074948;28;20203;-63
2023/11/12 13:40:14;;;;;;;9.32;5.65;;;;;;;;;;5073028;28;20666;-64
2023/11/12 13:42:42;;;;;;;5.07;4.55;;;;;;;;;;5073435;28;20208;-64
2023/11/12 13:45:13;;;;;;;5.43;4.85;;;;;;;;;;5059436;28;20250;-64
2023/11/12 13:47:41;;;;;;;9.13;4.53;;;;;;;;;;5073025;28;20240;-63
2023/11/12 13:50:13;;;;;;;5.47;4.35;;;;;;;;;;5073725;28;20219;-64
2023/11/12 13:52:42;;;;;;;5.20;3.97;;;;;;;;;;5073042;28;20198;-64
2023/11/12 13:55:17;;;;;;;8.77;4.70;;;;;;;;;;5073172;28;20207;-63
2023/11/12 13:57:48;;;;;;;18.73;9.38;;;;;;;;;;5072896;28;20196;-64
2023/11/12 14:00:19;;;;;;;8.73;4.70;;;;;;;;;;5073053;28;20218;-63
2023/11/12 14:02:47;;;;;;;5.22;4.72;;;;;;;;;;5071787;28;20184;-64
2023/11/12 14:05:16;;;;;;;3.80;3.40;;;;;;;;;;5072003;28;20662;-64
2023/11/12 14:07:44;;;;;;;7.32;3.20;;;;;;;;;;5072576;28;20283;-64
2023/11/12 14:10:14;;;;;;;3.40;3.05;;;;;;;;;;5072329;28;20219;-63
2023/11/12 14:12:44;;;;;;;3.05;2.78;;;;;;;;;;5072601;28;20308;-64
2023/11/12 14:15:17;;;;;;;7.75;3.13;;;;;;;;;;5073598;28;20222;-63
2023/11/12 14:17:47;;;;;;;10.60;3.25;;;;;;;;;;5072815;28;20189;-63
2023/11/12 14:20:22;;;;;;;3.90;3.55;;;;;;;;;;5072998;28;20602;-64
2023/11/12 14:22:50;;;;;;;4.13;3.22;;;;;;;;;;5072386;28;20632;-63
2023/11/12 14:25:19;;;;;;;6.03;3.33;;;;;;;;;;5072260;28;20212;-63
2023/11/12 14:27:48;;;;;;;6.22;2.90;;;;;;;;;;5072231;28;20663;-63
2023/11/12 14:30:18;;;;;;;4.40;3.38;;;;;;;;;;5072355;28;20284;-64
2023/11/12 14:32:47;;;;;;;5.88;3.20;;;;;;;;;;5054406;28;20194;-64
2023/11/12 14:35:16;;;;;;;4.28;3.20;;;;;;;;;;5072721;28;20642;-63
2023/11/12 14:37:47;;;;;;;3.53;2.95;;;;;;;;;;5072719;28;20670;-63